Time;durP1;ratioP1;P1;durP2;ratioP2;P2;SDS_P1;SDS_P2;PMS_P1;PMS_P2;Temp;Humidity;BMP_temperature;BMP_pressure;BME280_temperature;BME280_humidity;BME280_pressure;Samples;Min_cycle;Max_cycle;Signal;HPM_P1;HPM_P2
2022/08/16 00:01:44;;;;;;;3.70;3.40;;;19.20;99.90;;;;;;4954155;28;20196;-72
2022/08/16 00:04:09;;;;;;;3.50;3.17;;;19.20;99.90;;;;;;4954438;29;20419;-71
2022/08/16 00:06:35;;;;;;;10.37;4.00;;;19.30;99.90;;;;;;4955105;29;20285;-72
2022/08/16 00:09:01;;;;;;;3.90;3.47;;;19.30;99.90;;;;;;4954794;29;20191;-70
2022/08/16 00:11:26;;;;;;;8.03;3.60;;;19.30;99.90;;;;;;4953463;28;20468;-71
2022/08/16 00:13:52;;;;;;;3.60;3.30;;;19.30;99.90;;;;;;4955260;28;20236;-71
2022/08/16 00:16:18;;;;;;;5.73;4.30;;;19.20;99.90;;;;;;4954536;29;20176;-71
2022/08/16 00:18:44;;;;;;;4.33;3.93;;;19.20;99.90;;;;;;4954282;29;20211;-71
2022/08/16 00:21:10;;;;;;;3.47;3.27;;;19.10;99.90;;;;;;4953592;28;20196;-70
2022/08/16 00:23:35;;;;;;;4.07;3.67;;;19.10;99.90;;;;;;4952995;29;20416;-71
2022/08/16 00:26:01;;;;;;;4.80;3.93;;;19.00;99.90;;;;;;4954318;28;20834;-71
2022/08/16 00:28:27;;;;;;;4.90;4.50;;;18.90;99.90;;;;;;4954168;29;20173;-71
2022/08/16 00:30:52;;;;;;;4.10;3.70;;;18.90;99.90;;;;;;4952764;28;20204;-72
2022/08/16 00:33:18;;;;;;;4.23;3.10;;;18.90;99.90;;;;;;4954380;29;20177;-71
2022/08/16 00:35:43;;;;;;;6.03;3.57;;;18.90;99.90;;;;;;4955360;29;20179;-71
2022/08/16 00:38:09;;;;;;;4.50;4.10;;;18.90;99.90;;;;;;4954907;29;20533;-71
2022/08/16 00:40:41;;;;;;;4.37;3.97;;;18.90;99.90;;;;;;4953903;29;20183;-69
2022/08/16 00:43:13;;;;;;;4.93;3.67;;;18.90;99.90;;;;;;4953924;29;20229;-72
2022/08/16 00:45:55;;;;;;;3.80;3.50;;;18.90;99.90;;;;;;4953744;29;20411;-71
2022/08/16 00:48:20;;;;;;;3.90;3.60;;;18.90;99.90;;;;;;4953844;29;20440;-71
2022/08/16 00:50:46;;;;;;;3.53;3.27;;;18.80;99.90;;;;;;4953008;28;20554;-71
2022/08/16 00:53:15;;;;;;;4.10;3.67;;;18.80;99.90;;;;;;4953075;29;20177;-70
2022/08/16 00:55:46;;;;;;;7.07;4.20;;;18.70;99.90;;;;;;4953660;29;20181;-70
2022/08/16 00:58:13;;;;;;;3.53;3.33;;;18.70;99.90;;;;;;4953403;29;20466;-69
2022/08/16 02:31:16;;;;;;;3.90;3.53;;;18.70;99.90;;;;;;5788660;23;20499;-72
2022/08/16 02:33:43;;;;;;;5.63;4.20;;;18.70;99.90;;;;;;4950050;28;20451;-72
2022/08/16 02:36:09;;;;;;;3.60;3.40;;;18.70;99.90;;;;;;4943113;29;20177;-72
2022/08/16 02:38:37;;;;;;;4.40;4.00;;;18.70;99.90;;;;;;4936227;29;20498;-72
2022/08/16 02:41:03;;;;;;;4.77;4.17;;;18.70;99.90;;;;;;4935564;29;20433;-72
2022/08/16 02:43:31;;;;;;;4.70;4.30;;;18.60;99.90;;;;;;4936484;29;20464;-72
2022/08/16 02:45:57;;;;;;;4.47;4.13;;;18.60;99.90;;;;;;4935795;29;20224;-71
2022/08/16 02:48:23;;;;;;;6.13;4.40;;;18.60;99.90;;;;;;4936519;29;20417;-72
2022/08/16 02:50:50;;;;;;;7.23;4.30;;;18.60;99.90;;;;;;4935575;29;20471;-72
2022/08/16 02:53:15;;;;;;;6.00;3.90;;;18.60;99.90;;;;;;4936110;29;20431;-72
2022/08/16 02:55:41;;;;;;;4.47;4.07;;;18.60;99.90;;;;;;4935820;29;20413;-71
2022/08/16 02:58:07;;;;;;;4.93;4.53;;;18.50;99.90;;;;;;4935970;29;20178;-73
2022/08/16 03:00:33;;;;;;;4.70;4.30;;;18.50;99.90;;;;;;4935422;29;20200;-72
2022/08/16 03:02:58;;;;;;;3.77;3.50;;;18.60;99.90;;;;;;4935397;29;20464;-73
2022/08/16 03:05:25;;;;;;;4.77;4.30;;;18.60;99.90;;;;;;4935513;29;20665;-73
2022/08/16 03:07:50;;;;;;;5.50;3.90;;;18.50;99.90;;;;;;4934608;29;20188;-71
2022/08/16 03:10:16;;;;;;;4.90;4.50;;;18.50;99.90;;;;;;4935658;29;20456;-73
2022/08/16 03:12:44;;;;;;;6.63;4.03;;;18.50;99.90;;;;;;4934823;29;20189;-72
2022/08/16 03:15:12;;;;;;;5.13;4.73;;;18.50;99.90;;;;;;4935829;29;20177;-70
2022/08/16 03:17:38;;;;;;;7.30;5.10;;;18.50;99.90;;;;;;4935951;29;20441;-72
2022/08/16 03:20:06;;;;;;;5.20;4.60;;;18.50;99.90;;;;;;4935656;29;20519;-71
2022/08/16 03:22:31;;;;;;;4.70;4.20;;;18.40;99.90;;;;;;4935011;29;20201;-70
2022/08/16 03:24:59;;;;;;;6.43;4.33;;;18.40;99.90;;;;;;4935270;29;20432;-72
2022/08/16 03:27:26;;;;;;;4.77;4.43;;;18.40;99.90;;;;;;4935252;29;20189;-73
2022/08/16 03:29:52;;;;;;;5.27;4.77;;;18.30;99.90;;;;;;4935429;29;20788;-72
2022/08/16 03:32:17;;;;;;;9.47;4.10;;;18.30;99.90;;;;;;4934175;29;20460;-73
2022/08/16 03:34:43;;;;;;;4.40;4.00;;;18.20;99.90;;;;;;4935567;29;20492;-74
2022/08/16 03:37:08;;;;;;;8.07;5.00;;;18.20;99.90;;;;;;4935304;29;20205;-73
2022/08/16 03:39:34;;;;;;;8.30;4.50;;;18.10;99.90;;;;;;4935001;29;20166;-72
2022/08/16 03:41:59;;;;;;;5.40;4.37;;;18.10;99.90;;;;;;4934376;29;20636;-72
2022/08/16 03:44:26;;;;;;;4.17;3.87;;;18.00;99.90;;;;;;4935366;29;20272;-73
2022/08/16 03:46:51;;;;;;;4.63;4.30;;;17.90;99.90;;;;;;4933864;29;20710;-71
2022/08/16 03:49:19;;;;;;;5.80;4.83;;;17.90;99.90;;;;;;4935067;29;20413;-73
2022/08/16 03:51:44;;;;;;;4.80;4.33;;;17.90;99.90;;;;;;4934498;29;20209;-73
2022/08/16 03:54:10;;;;;;;4.57;3.90;;;17.90;99.90;;;;;;4935099;29;20436;-73
2022/08/16 03:56:35;;;;;;;6.07;5.47;;;17.80;99.90;;;;;;4935326;29;20200;-72
2022/08/16 03:59:01;;;;;;;4.90;4.50;;;17.80;99.90;;;;;;4934785;29;20618;-72
2022/08/16 04:01:27;;;;;;;5.27;4.77;;;17.80;99.90;;;;;;4934478;29;20265;-72
2022/08/16 04:03:53;;;;;;;5.37;4.57;;;17.70;99.90;;;;;;4934405;29;20180;-73
2022/08/16 04:06:19;;;;;;;6.00;5.50;;;17.80;99.90;;;;;;4934911;29;20421;-72
2022/08/16 04:08:46;;;;;;;5.43;4.93;;;17.80;99.90;;;;;;4934782;29;20248;-72
2022/08/16 04:11:12;;;;;;;8.63;5.63;;;17.80;99.90;;;;;;4933678;29;20469;-72
2022/08/16 04:13:38;;;;;;;5.07;4.67;;;17.80;99.90;;;;;;4934309;29;20424;-74
2022/08/16 04:16:05;;;;;;;8.13;4.57;;;17.80;99.90;;;;;;4934739;29;20176;-74
2022/08/16 04:18:31;;;;;;;5.10;4.70;;;17.80;99.90;;;;;;4934908;29;20481;-72
2022/08/16 04:20:56;;;;;;;5.73;5.20;;;17.80;99.90;;;;;;4933293;29;20437;-73
2022/08/16 04:23:22;;;;;;;10.70;4.93;;;17.80;99.90;;;;;;4934535;29;20436;-72
2022/08/16 04:25:48;;;;;;;5.70;5.23;;;17.80;99.90;;;;;;4934591;29;20672;-73
2022/08/16 04:28:13;;;;;;;5.07;4.67;;;17.80;99.90;;;;;;4934131;29;20662;-74
2022/08/16 04:30:39;;;;;;;5.83;5.20;;;17.80;99.90;;;;;;4933535;29;20685;-74
2022/08/16 04:33:07;;;;;;;5.73;4.77;;;17.90;99.90;;;;;;4934222;29;20953;-74
2022/08/16 04:35:32;;;;;;;5.33;4.93;;;17.90;99.90;;;;;;4934532;29;20634;-72
2022/08/16 04:37:58;;;;;;;4.83;4.53;;;17.90;99.90;;;;;;4933631;29;20460;-75
2022/08/16 04:40:25;;;;;;;5.47;5.00;;;18.00;99.90;;;;;;4933853;29;20189;-71
2022/08/16 04:42:51;;;;;;;5.23;4.83;;;18.00;99.90;;;;;;4933846;29;20201;-72
2022/08/16 04:45:17;;;;;;;11.20;5.00;;;18.00;99.90;;;;;;4934174;29;20932;-74
2022/08/16 04:47:44;;;;;;;6.67;5.67;;;18.10;99.90;;;;;;4933906;29;20189;-74
2022/08/16 04:50:14;;;;;;;5.60;5.17;;;18.10;99.90;;;;;;4933963;29;20540;-74
2022/08/16 04:52:42;;;;;;;5.33;4.77;;;18.20;99.90;;;;;;4933585;29;20799;-74
2022/08/16 04:55:13;;;;;;;5.33;4.93;;;18.30;99.90;;;;;;4933780;29;20417;-74
2022/08/16 04:57:39;;;;;;;5.47;4.93;;;18.30;99.90;;;;;;4933812;29;20504;-74
2022/08/16 05:00:11;;;;;;;4.80;4.47;;;18.40;99.90;;;;;;4933233;29;20429;-74
2022/08/16 05:02:38;;;;;;;5.77;5.27;;;18.40;99.90;;;;;;4933202;29;20437;-74
2022/08/16 05:05:04;;;;;;;5.87;5.37;;;18.40;99.90;;;;;;4933209;29;20424;-73
2022/08/16 05:07:29;;;;;;;5.10;4.43;;;18.40;99.90;;;;;;4933579;29;20429;-74
2022/08/16 05:09:55;;;;;;;4.60;4.30;;;18.50;99.90;;;;;;4931851;29;20205;-74
2022/08/16 05:12:20;;;;;;;5.20;4.23;;;18.60;99.90;;;;;;4933067;29;20548;-73
2022/08/16 05:14:46;;;;;;;4.97;4.67;;;18.60;99.90;;;;;;4933844;29;20297;-74
2022/08/16 05:17:11;;;;;;;5.30;4.90;;;18.60;99.90;;;;;;4933431;29;20181;-69
2022/08/16 05:19:37;;;;;;;6.50;4.90;;;18.60;99.90;;;;;;4933955;29;20182;-71
2022/08/16 05:22:02;;;;;;;6.30;4.23;;;18.60;99.90;;;;;;4947063;28;20612;-72
2022/08/16 05:24:28;;;;;;;4.13;3.83;;;18.70;99.90;;;;;;4933192;29;20184;-73
2022/08/16 05:26:53;;;;;;;5.00;4.50;;;18.80;99.90;;;;;;4933537;29;20670;-71
2022/08/16 05:29:19;;;;;;;5.97;4.53;;;18.80;99.90;;;;;;4933193;29;20192;-71
2022/08/16 05:31:44;;;;;;;6.53;5.03;;;18.90;99.90;;;;;;4932307;29;20217;-72
2022/08/16 05:34:10;;;;;;;7.73;5.10;;;19.00;99.90;;;;;;4932883;29;20204;-70
2022/08/16 05:36:36;;;;;;;7.23;4.93;;;19.00;99.90;;;;;;4933175;29;20196;-71
2022/08/16 05:39:04;;;;;;;5.60;4.73;;;19.10;99.90;;;;;;4932969;29;20512;-72
2022/08/16 05:41:29;;;;;;;5.17;4.67;;;19.10;99.90;;;;;;4932824;29;20197;-71
2022/08/16 05:43:55;;;;;;;6.93;4.93;;;19.20;99.90;;;;;;4931629;29;20762;-72
2022/08/16 05:46:20;;;;;;;9.63;4.43;;;19.20;99.90;;;;;;4933596;29;20694;-72
2022/08/16 05:48:46;;;;;;;6.67;5.10;;;19.20;99.90;;;;;;4933010;29;20701;-71
2022/08/16 05:51:12;;;;;;;5.33;4.63;;;19.20;99.90;;;;;;4932368;29;20253;-72
2022/08/16 05:53:37;;;;;;;5.43;4.77;;;19.40;99.90;;;;;;4933212;29;20221;-72
2022/08/16 05:56:03;;;;;;;8.60;5.40;;;19.40;99.90;;;;;;4932737;29;20544;-72
2022/08/16 05:58:28;;;;;;;4.63;4.20;;;19.50;99.90;;;;;;4933103;29;20662;-73
2022/08/16 06:00:55;;;;;;;5.00;4.60;;;19.60;99.90;;;;;;4932191;29;20201;-71
2022/08/16 06:03:21;;;;;;;4.57;4.17;;;19.60;99.90;;;;;;4932550;29;20565;-70
2022/08/16 06:05:46;;;;;;;11.67;5.07;;;19.70;99.90;;;;;;4933296;29;20420;-70
2022/08/16 06:08:12;;;;;;;6.73;4.07;;;19.80;99.90;;;;;;4932820;29;20181;-71
2022/08/16 06:10:37;;;;;;;6.20;4.90;;;20.00;99.90;;;;;;4935006;29;20241;-71
2022/08/16 06:13:03;;;;;;;7.20;4.50;;;20.10;99.90;;;;;;4936870;29;20189;-72
2022/08/16 06:15:28;;;;;;;5.47;4.97;;;20.20;99.90;;;;;;4936550;29;20169;-72
2022/08/16 06:17:54;;;;;;;5.47;4.97;;;20.40;99.90;;;;;;4936892;29;20177;-72
2022/08/16 06:20:22;;;;;;;6.03;4.10;;;20.60;99.90;;;;;;4936586;29;20178;-71
2022/08/16 06:22:49;;;;;;;4.50;4.20;;;20.70;99.90;;;;;;4936567;29;20805;-71
2022/08/16 06:25:15;;;;;;;3.60;3.30;;;20.90;99.90;;;;;;4936747;29;20442;-72
2022/08/16 06:27:41;;;;;;;5.63;3.90;;;21.00;99.90;;;;;;4936728;29;20504;-68
2022/08/16 06:30:08;;;;;;;4.97;3.80;;;21.20;99.90;;;;;;4936168;29;20910;-72
2022/08/16 06:32:34;;;;;;;4.27;3.87;;;21.30;99.90;;;;;;4935822;29;20219;-71
2022/08/16 06:35:00;;;;;;;4.90;4.33;;;21.40;99.90;;;;;;4936212;29;20736;-71
2022/08/16 06:37:25;;;;;;;5.47;4.93;;;21.50;99.90;;;;;;4936489;29;20170;-71
2022/08/16 06:39:51;;;;;;;7.60;3.60;;;21.70;99.90;;;;;;4936215;29;20185;-71
2022/08/16 06:42:17;;;;;;;3.77;3.57;;;21.90;99.90;;;;;;4935249;29;20204;-70
2022/08/16 06:44:43;;;;;;;5.30;3.67;;;22.50;99.90;;;;;;4936186;29;20181;-72
2022/08/16 06:47:08;;;;;;;7.27;3.87;;;23.10;99.90;;;;;;4936276;29;20409;-72
2022/08/16 06:49:34;;;;;;;4.47;4.07;;;23.60;99.90;;;;;;4936246;29;20550;-71
2022/08/16 06:51:59;;;;;;;5.20;4.43;;;24.20;99.90;;;;;;4934900;29;20220;-72
2022/08/16 06:54:25;;;;;;;6.53;3.47;;;24.80;99.90;;;;;;4936297;29;20181;-71
2022/08/16 06:56:50;;;;;;;3.77;3.40;;;25.10;99.90;;;;;;4936103;29;20253;-69
2022/08/16 06:59:16;;;;;;;4.43;4.03;;;25.50;99.90;;;;;;4936187;29;20182;-71
2022/08/16 07:01:41;;;;;;;5.83;4.20;;;25.80;99.90;;;;;;4935325;29;20198;-71
2022/08/16 07:04:07;;;;;;;5.00;4.57;;;25.90;99.90;;;;;;4935995;29;20181;-71
2022/08/16 07:06:32;;;;;;;5.37;4.30;;;26.10;99.90;;;;;;4935924;29;20208;-71
2022/08/16 07:08:58;;;;;;;6.40;4.43;;;26.40;99.90;;;;;;4935446;29;20184;-72
2022/08/16 07:11:25;;;;;;;7.80;3.77;;;26.70;99.90;;;;;;4935238;29;20213;-72
2022/08/16 07:13:51;;;;;;;4.40;3.70;;;27.10;99.90;;;;;;4935868;29;20369;-70
2022/08/16 07:16:17;;;;;;;5.27;4.20;;;27.30;99.90;;;;;;4936171;29;20418;-72
2022/08/16 07:18:43;;;;;;;5.83;3.90;;;27.40;99.90;;;;;;4935876;29;20508;-71
2022/08/16 07:21:11;;;;;;;5.10;4.03;;;27.40;99.90;;;;;;4935041;29;20465;-72
2022/08/16 07:23:36;;;;;;;7.10;4.23;;;27.50;99.90;;;;;;4935195;29;20424;-72
2022/08/16 07:26:04;;;;;;;3.90;3.60;;;27.90;99.90;;;;;;4936064;29;20457;-72
2022/08/16 07:28:29;;;;;;;5.23;3.90;;;28.00;99.90;;;;;;4935362;29;20881;-72
2022/08/16 07:30:56;;;;;;;4.47;4.07;;;28.00;99.90;;;;;;4935080;29;20487;-72
2022/08/16 07:33:21;;;;;;;3.93;3.67;;;27.90;99.90;;;;;;4935967;29;20635;-72
2022/08/16 07:35:47;;;;;;;4.70;4.40;;;28.00;99.90;;;;;;4935428;29;20428;-72
2022/08/16 07:38:12;;;;;;;7.40;4.10;;;28.20;99.90;;;;;;4935591;29;20182;-72
2022/08/16 07:40:38;;;;;;;4.47;4.07;;;28.40;99.90;;;;;;4934544;29;20236;-71
2022/08/16 07:43:04;;;;;;;4.20;4.00;;;28.50;99.90;;;;;;4935503;29;20185;-72
2022/08/16 07:45:29;;;;;;;4.80;4.30;;;28.80;99.90;;;;;;4935509;29;20192;-72
2022/08/16 07:47:55;;;;;;;5.93;4.47;;;29.00;99.90;;;;;;4935506;29;20205;-72
2022/08/16 07:50:21;;;;;;;4.50;4.00;;;29.10;99.90;;;;;;4934773;29;20582;-72
2022/08/16 07:52:47;;;;;;;6.57;4.20;;;28.80;99.90;;;;;;4934799;29;20678;-72
2022/08/16 07:55:15;;;;;;;10.13;4.17;;;28.70;99.90;;;;;;4935324;29;20181;-72
2022/08/16 07:57:42;;;;;;;4.47;4.07;;;28.80;99.90;;;;;;4935102;29;20504;-71
2022/08/16 08:00:08;;;;;;;4.80;4.43;;;29.00;99.90;;;;;;4935064;29;20429;-72
2022/08/16 08:02:35;;;;;;;7.50;5.33;;;29.00;99.90;;;;;;4934299;29;20634;-71
2022/08/16 08:05:00;;;;;;;6.53;3.97;;;29.40;99.90;;;;;;4935137;29;20417;-72
2022/08/16 08:07:26;;;;;;;9.20;4.47;;;29.50;99.90;;;;;;4935081;29;20424;-72
2022/08/16 08:09:51;;;;;;;5.70;4.40;;;29.70;99.90;;;;;;4934511;29;20570;-71
2022/08/16 08:12:18;;;;;;;5.00;4.20;;;29.70;99.90;;;;;;4934428;29;20206;-73
2022/08/16 08:14:45;;;;;;;4.40;4.10;;;30.00;99.90;;;;;;4935212;29;20197;-72
2022/08/16 08:17:11;;;;;;;6.00;4.50;;;30.20;99.90;;;;;;4934669;29;20477;-70
2022/08/16 08:19:36;;;;;;;5.73;5.10;;;29.90;99.90;;;;;;4934425;29;20402;-72
2022/08/16 08:22:03;;;;;;;7.23;4.90;;;29.70;99.90;;;;;;4933825;29;20693;-71
2022/08/16 08:24:31;;;;;;;4.53;4.10;;;28.60;99.90;;;;;;4934832;29;20195;-71
2022/08/16 08:26:57;;;;;;;8.40;4.87;;;27.90;99.90;;;;;;4934866;29;20433;-72
2022/08/16 08:29:23;;;;;;;5.67;4.47;;;28.00;99.90;;;;;;4934620;29;20421;-72
2022/08/16 08:31:50;;;;;;;7.50;5.20;;;28.20;99.90;;;;;;4933631;29;20473;-73
2022/08/16 08:34:16;;;;;;;6.60;5.17;;;28.00;99.90;;;;;;4933672;29;20938;-72
2022/08/16 08:36:42;;;;;;;6.17;4.90;;;27.80;99.90;;;;;;4934738;29;20410;-72
2022/08/16 08:39:07;;;;;;;5.07;4.67;;;27.60;99.90;;;;;;4934126;29;20177;-72
2022/08/16 08:41:33;;;;;;;6.93;5.03;;;27.40;99.90;;;;;;4933763;29;20197;-71
2022/08/16 08:43:58;;;;;;;5.83;5.37;;;27.80;99.90;;;;;;4934476;29;20181;-72
2022/08/16 08:46:25;;;;;;;6.17;4.30;;;28.40;99.90;;;;;;4934362;29;20196;-72
2022/08/16 08:48:52;;;;;;;5.40;4.90;;;28.30;99.90;;;;;;4933479;29;20576;-69
2022/08/16 08:51:17;;;;;;;5.30;4.90;;;28.10;99.90;;;;;;4933270;29;20468;-73
2022/08/16 08:53:44;;;;;;;5.30;4.70;;;27.90;99.90;;;;;;4934275;29;20428;-72
2022/08/16 08:56:11;;;;;;;6.10;5.20;;;28.30;99.90;;;;;;4933578;29;20185;-70
2022/08/16 08:58:36;;;;;;;5.57;5.03;;;28.60;99.90;;;;;;4933955;29;20409;-73
2022/08/16 09:01:05;;;;;;;6.10;4.80;;;28.50;99.90;;;;;;4933313;29;20528;-72
2022/08/16 09:03:32;;;;;;;6.33;5.83;;;28.30;99.90;;;;;;4934460;29;20185;-70
2022/08/16 09:05:57;;;;;;;5.30;4.90;;;27.90;99.90;;;;;;4934047;29;20427;-72
2022/08/16 09:08:25;;;;;;;5.50;4.70;;;28.00;99.90;;;;;;4933647;29;20421;-72
2022/08/16 09:10:54;;;;;;;7.57;4.53;;;28.80;99.90;;;;;;4932879;29;20578;-69
2022/08/16 09:13:20;;;;;;;5.47;4.97;;;29.60;99.90;;;;;;4933964;29;20793;-72
2022/08/16 09:15:47;;;;;;;4.77;4.37;;;30.00;99.90;;;;;;4933614;29;20500;-71
2022/08/16 09:18:13;;;;;;;6.00;5.30;;;30.40;99.90;;;;;;4932974;29;20185;-72
2022/08/16 09:20:39;;;;;;;4.93;4.50;;;30.60;99.90;;;;;;4933185;29;20417;-72
2022/08/16 09:23:04;;;;;;;5.23;4.60;;;30.50;99.90;;;;;;4933607;29;20216;-72
2022/08/16 09:25:30;;;;;;;4.53;3.97;;;30.30;99.90;;;;;;4933611;29;20658;-72
2022/08/16 09:27:55;;;;;;;5.43;4.93;;;30.00;99.90;;;;;;4932934;29;20568;-72
2022/08/16 09:30:21;;;;;;;6.50;4.47;;;29.40;99.90;;;;;;4932854;29;20200;-69
2022/08/16 09:32:49;;;;;;;5.30;4.80;;;29.00;99.90;;;;;;4932799;29;20220;-73
2022/08/16 09:35:15;;;;;;;8.83;5.10;;;28.70;99.90;;;;;;4933531;29;20177;-72
2022/08/16 09:37:41;;;;;;;5.30;4.53;;;28.20;99.90;;;;;;4933464;29;20907;-72
2022/08/16 09:40:08;;;;;;;4.63;4.33;;;27.90;99.90;;;;;;4932746;29;20178;-73
2022/08/16 09:42:34;;;;;;;7.67;5.17;;;27.60;99.90;;;;;;4932670;29;20472;-71
2022/08/16 09:44:59;;;;;;;5.67;5.27;;;27.30;99.90;;;;;;4932318;29;20452;-71
2022/08/16 09:47:26;;;;;;;6.17;5.07;;;27.10;99.90;;;;;;4933531;29;20184;-72
2022/08/16 09:49:52;;;;;;;8.13;5.00;;;27.40;99.90;;;;;;4932785;29;20173;-71
2022/08/16 09:52:17;;;;;;;5.73;4.63;;;28.30;99.90;;;;;;4932376;29;20823;-72
2022/08/16 09:54:43;;;;;;;6.70;4.40;;;29.10;99.90;;;;;;4933379;29;20185;-71
2022/08/16 09:57:08;;;;;;;5.73;4.47;;;29.90;99.90;;;;;;4933093;29;20197;-72
2022/08/16 09:59:34;;;;;;;6.70;4.73;;;29.90;99.90;;;;;;4933004;29;20170;-72
2022/08/16 10:02:00;;;;;;;7.30;5.20;;;30.80;99.90;;;;;;4932170;29;20332;-72
2022/08/16 10:04:26;;;;;;;8.43;4.77;;;32.00;99.90;;;;;;4933498;29;20546;-72
2022/08/16 10:06:55;;;;;;;5.93;5.33;;;32.00;99.90;;;;;;4933327;29;20192;-69
2022/08/16 10:09:22;;;;;;;8.07;5.13;;;31.80;99.90;;;;;;4933074;29;20429;-73
2022/08/16 10:14:31;;;;;;;7.17;5.07;;;29.90;99.90;;;;;;4933157;29;20831;-71
2022/08/16 10:17:03;;;;;;;5.90;4.83;;;29.20;99.90;;;;;;4933232;29;20508;-72
2022/08/16 10:19:30;;;;;;;6.03;5.47;;;28.60;99.90;;;;;;4932916;29;20643;-72
2022/08/16 10:21:56;;;;;;;6.80;5.17;;;28.00;99.90;;;;;;4931809;29;20460;-73
2022/08/16 10:24:22;;;;;;;6.73;5.43;;;27.50;99.90;;;;;;4933003;29;20421;-72
2022/08/16 10:26:48;;;;;;;6.40;5.47;;;27.20;99.90;;;;;;4933310;29;20185;-70
2022/08/16 10:29:15;;;;;;;5.73;5.20;;;27.00;99.90;;;;;;4932314;29;20941;-72
2022/08/16 10:31:41;;;;;;;7.33;5.63;;;26.70;99.90;;;;;;4931945;29;20473;-73
2022/08/16 10:34:06;;;;;;;6.20;5.20;;;26.50;99.90;;;;;;4932756;29;20863;-72
2022/08/16 10:36:32;;;;;;;8.40;5.40;;;26.40;99.90;;;;;;4933341;29;20413;-70
2022/08/16 10:38:58;;;;;;;9.50;5.87;;;26.30;99.90;;;;;;4932721;29;20241;-71
2022/08/16 10:41:23;;;;;;;7.53;5.60;;;26.40;99.90;;;;;;4931729;29;20213;-71
2022/08/16 10:43:49;;;;;;;4.97;4.67;;;26.50;99.90;;;;;;4932838;29;20248;-74
2022/08/16 10:46:15;;;;;;;4.87;4.57;;;26.80;99.90;;;;;;4933137;29;20181;-72
2022/08/16 10:48:43;;;;;;;5.40;4.90;;;27.10;99.90;;;;;;4932832;29;20425;-72
2022/08/16 10:51:09;;;;;;;4.83;4.53;;;27.40;99.90;;;;;;4931042;29;20476;-72
2022/08/16 10:53:35;;;;;;;8.30;5.37;;;27.70;99.90;;;;;;4932983;29;20418;-72
2022/08/16 10:56:03;;;;;;;6.40;5.20;;;28.50;99.90;;;;;;4934089;29;20550;-72
2022/08/16 10:58:30;;;;;;;5.13;4.73;;;29.30;99.90;;;;;;4935133;29;20425;-72
2022/08/16 11:00:55;;;;;;;6.90;4.50;;;29.40;99.90;;;;;;4934926;29;20532;-71
2022/08/16 11:03:21;;;;;;;5.73;5.33;;;29.60;99.90;;;;;;4936785;29;20511;-72
2022/08/16 11:05:46;;;;;;;5.03;4.60;;;29.10;99.90;;;;;;4936093;29;20189;-71
2022/08/16 11:08:12;;;;;;;5.00;4.47;;;29.30;99.90;;;;;;4935347;29;20185;-70
2022/08/16 11:10:41;;;;;;;6.60;4.40;;;29.40;99.90;;;;;;4935346;29;20220;-69
2022/08/16 11:13:08;;;;;;;6.50;4.37;;;29.40;99.90;;;;;;4936083;29;20217;-72
2022/08/16 11:15:36;;;;;;;5.03;4.50;;;29.50;99.90;;;;;;4936301;29;20413;-71
2022/08/16 11:18:02;;;;;;;5.37;4.50;;;29.80;99.90;;;;;;4935534;29;20417;-72
2022/08/16 11:20:28;;;;;;;5.43;5.03;;;30.40;99.90;;;;;;4936037;29;20429;-72
2022/08/16 11:22:55;;;;;;;4.47;4.07;;;30.60;99.90;;;;;;4933713;29;20500;-72
2022/08/16 11:25:23;;;;;;;4.87;3.80;;;31.00;99.90;;;;;;4935863;29;20189;-72
2022/08/16 11:27:49;;;;;;;5.23;4.17;;;31.30;99.90;;;;;;4935853;29;20429;-73
2022/08/16 11:30:15;;;;;;;5.13;4.30;;;31.80;99.90;;;;;;4935395;29;20451;-71
2022/08/16 11:32:43;;;;;;;6.17;4.20;;;31.90;99.90;;;;;;4934666;29;20219;-71
2022/08/16 11:35:14;;;;;;;6.80;4.40;;;31.50;99.90;;;;;;4935555;29;20405;-74
2022/08/16 11:37:42;;;;;;;9.03;4.93;;;31.40;99.90;;;;;;4935774;29;20513;-73
2022/08/16 11:40:08;;;;;;;5.80;5.20;;;31.40;99.90;;;;;;4935206;29;20424;-74
2022/08/16 11:42:34;;;;;;;10.03;3.90;;;30.80;99.90;;;;;;4933888;29;20441;-73
2022/08/16 11:44:59;;;;;;;4.87;4.37;;;30.30;99.90;;;;;;4935256;29;20779;-73
2022/08/16 11:47:25;;;;;;;4.80;4.27;;;29.60;99.90;;;;;;4935583;29;20177;-73
2022/08/16 11:49:50;;;;;;;5.13;4.80;;;29.30;99.90;;;;;;4934505;29;20199;-72
2022/08/16 11:52:16;;;;;;;7.33;5.10;;;29.30;99.90;;;;;;4934397;29;20215;-73
2022/08/16 11:54:44;;;;;;;4.63;4.33;;;29.30;99.90;;;;;;4935147;29;20208;-72
2022/08/16 11:57:10;;;;;;;9.17;4.87;;;29.60;99.90;;;;;;4934824;29;20424;-72
2022/08/16 11:59:37;;;;;;;5.17;4.87;;;30.00;99.90;;;;;;4935103;29;20460;-75
2022/08/16 12:02:05;;;;;;;5.07;4.57;;;30.30;99.90;;;;;;4933858;29;20934;-74
2022/08/16 12:04:32;;;;;;;4.90;4.50;;;30.30;99.90;;;;;;4935062;29;20966;-75
2022/08/16 12:06:58;;;;;;;5.60;5.00;;;30.50;99.90;;;;;;4934419;29;20922;-75
2022/08/16 12:09:24;;;;;;;4.60;4.40;;;30.60;99.90;;;;;;4934213;29;20429;-75
2022/08/16 12:11:50;;;;;;;7.73;4.17;;;30.60;99.90;;;;;;4934271;29;21043;-75
2022/08/16 12:14:16;;;;;;;4.37;4.07;;;30.70;99.90;;;;;;4934811;29;20662;-74
2022/08/16 12:16:42;;;;;;;7.57;4.87;;;30.70;99.90;;;;;;4934822;29;20174;-75
2022/08/16 12:19:09;;;;;;;4.80;4.30;;;30.70;99.50;;;;;;4934471;29;20176;-75
2022/08/16 12:21:34;;;;;;;6.27;4.70;;;30.00;99.60;;;;;;4933408;29;20437;-75
2022/08/16 12:24:01;;;;;;;4.90;4.40;;;29.50;99.90;;;;;;4934213;29;20952;-76
2022/08/16 12:26:26;;;;;;;4.93;4.53;;;29.30;99.90;;;;;;4934722;29;20173;-75
2022/08/16 12:28:52;;;;;;;6.70;4.33;;;29.20;99.90;;;;;;4934591;29;20517;-76
2022/08/16 12:31:21;;;;;;;5.40;4.90;;;29.30;99.90;;;;;;4933211;29;20292;-74
2022/08/16 12:33:47;;;;;;;4.60;4.30;;;29.30;99.90;;;;;;4934532;29;20198;-76
2022/08/16 12:36:13;;;;;;;4.90;4.13;;;29.40;99.90;;;;;;4934006;29;20847;-75
2022/08/16 12:38:40;;;;;;;4.80;4.43;;;29.50;99.90;;;;;;4934423;29;20174;-76
2022/08/16 12:41:05;;;;;;;4.67;4.33;;;29.40;99.90;;;;;;4933043;29;20445;-75
2022/08/16 12:43:31;;;;;;;4.83;4.57;;;29.20;99.90;;;;;;4934323;29;20997;-75
2022/08/16 12:45:58;;;;;;;4.83;4.23;;;29.00;99.90;;;;;;4932964;29;20189;-75
2022/08/16 12:51:13;;;;;;;3.83;3.63;;;28.90;99.90;;;;;;4933557;29;20468;-75
2022/08/16 12:53:40;;;;;;;7.33;3.60;;;29.20;99.90;;;;;;4933926;29;20501;-76
2022/08/16 12:56:10;;;;;;;4.60;4.30;;;29.10;99.90;;;;;;4934065;29;20476;-76
2022/08/16 12:58:37;;;;;;;4.03;3.90;;;29.10;99.70;;;;;;4934123;29;20624;-76
2022/08/16 13:01:03;;;;;;;8.30;4.97;;;29.10;99.90;;;;;;4933344;29;20437;-75
2022/08/16 13:03:29;;;;;;;6.50;4.20;;;29.20;99.90;;;;;;4933778;29;20418;-75
2022/08/16 13:05:54;;;;;;;7.30;4.17;;;29.30;99.90;;;;;;4934071;29;20837;-76
2022/08/16 13:08:20;;;;;;;8.10;4.73;;;29.50;99.70;;;;;;4934015;29;20181;-76
2022/08/16 13:10:48;;;;;;;4.50;4.10;;;29.20;99.40;;;;;;4933324;29;20505;-74
2022/08/16 13:13:23;;;;;;;5.17;4.67;;;29.10;99.90;;;;;;4934127;29;20638;-76
2022/08/16 13:15:54;;;;;;;4.20;3.80;;;28.80;99.90;;;;;;4932963;29;20799;-76
2022/08/16 13:18:21;;;;;;;4.73;4.43;;;28.80;99.90;;;;;;4934250;29;20417;-76
2022/08/16 13:20:47;;;;;;;4.63;4.30;;;28.70;99.70;;;;;;4933229;29;20420;-76
2022/08/16 13:23:13;;;;;;;4.47;3.80;;;28.50;99.70;;;;;;4933827;29;20425;-75
2022/08/16 13:25:42;;;;;;;3.80;3.43;;;28.40;99.90;;;;;;4934047;29;20180;-74
2022/08/16 13:28:09;;;;;;;5.33;4.33;;;28.50;99.90;;;;;;4933454;29;20177;-75
2022/08/16 13:30:39;;;;;;;5.53;4.10;;;28.50;99.80;;;;;;4931824;29;20563;-75
2022/08/16 13:33:05;;;;;;;4.60;4.13;;;28.50;99.90;;;;;;4932913;29;20441;-76
2022/08/16 13:35:31;;;;;;;4.23;3.83;;;28.50;99.70;;;;;;4932029;29;20430;-75
2022/08/16 13:37:56;;;;;;;4.93;4.20;;;28.60;99.80;;;;;;4932967;29;20654;-76
2022/08/16 13:40:23;;;;;;;5.20;4.00;;;28.70;99.90;;;;;;4933366;29;20604;-74
2022/08/16 13:42:52;;;;;;;6.87;4.10;;;28.70;99.90;;;;;;4933127;29;20192;-76
2022/08/16 13:45:18;;;;;;;3.60;3.30;;;28.90;99.90;;;;;;4933492;29;20425;-73
2022/08/16 13:47:43;;;;;;;4.23;3.93;;;29.00;99.90;;;;;;4933300;29;20922;-73
2022/08/16 13:50:09;;;;;;;4.70;4.23;;;29.30;99.40;;;;;;4932496;29;20185;-73
2022/08/16 13:52:35;;;;;;;5.17;4.13;;;29.20;99.10;;;;;;4932799;29;20201;-73
2022/08/16 13:55:02;;;;;;;4.57;4.10;;;29.40;99.50;;;;;;4933306;29;20409;-74
2022/08/16 13:57:28;;;;;;;9.47;4.10;;;29.50;99.00;;;;;;4933226;29;20431;-73
2022/08/16 13:59:53;;;;;;;7.13;4.80;;;29.40;99.40;;;;;;4933059;29;20422;-75
2022/08/16 14:02:19;;;;;;;8.70;4.43;;;29.30;99.10;;;;;;4931858;29;20205;-74
2022/08/16 14:04:45;;;;;;;5.17;4.70;;;29.00;99.30;;;;;;4933188;29;20181;-73
2022/08/16 14:07:14;;;;;;;5.40;4.43;;;28.80;99.70;;;;;;4933234;29;20185;-72
2022/08/16 14:09:41;;;;;;;4.90;4.33;;;28.70;99.90;;;;;;4933142;29;20266;-73
2022/08/16 14:12:26;;;;;;;5.30;4.80;;;28.50;99.90;;;;;;4931740;29;20985;-73
2022/08/16 14:14:52;;;;;;;6.60;4.90;;;28.30;99.90;;;;;;4933305;29;20488;-73
2022/08/16 14:17:19;;;;;;;5.47;4.97;;;28.30;99.90;;;;;;4933005;29;20877;-75